createdAt,value
2023-05-14T00:00:42.979Z,4.00
2023-05-14T00:01:43.113Z,4.60
2023-05-14T00:02:43.007Z,4.60
2023-05-14T00:03:43.074Z,4.60
2023-05-14T00:04:42.864Z,4.40
2023-05-14T00:05:43.869Z,4.70
2023-05-14T00:06:42.892Z,4.50
2023-05-14T00:07:42.914Z,4.50
2023-05-14T00:08:42.834Z,4.60
2023-05-14T00:09:42.949Z,4.60
2023-05-14T00:10:42.795Z,5.10
2023-05-14T00:11:43.902Z,4.50
2023-05-14T00:12:42.784Z,4.80
2023-05-14T00:13:42.943Z,4.60
2023-05-14T00:14:42.734Z,4.30
2023-05-14T00:15:42.888Z,4.20
2023-05-14T00:16:42.701Z,3.70
2023-05-14T00:17:42.804Z,4.30
2023-05-14T00:18:42.716Z,4.60
2023-05-14T00:19:42.812Z,4.10
2023-05-14T00:20:42.673Z,4.20
2023-05-14T00:21:42.763Z,4.10
2023-05-14T00:22:42.635Z,4.10
2023-05-14T00:23:42.696Z,4.10
2023-05-14T00:24:42.632Z,4.50
2023-05-14T00:25:42.723Z,4.30
2023-05-14T00:26:42.567Z,4.10
2023-05-14T00:27:42.683Z,4.10
2023-05-14T00:28:42.542Z,4.20
2023-05-14T00:30:04.644Z,4.30
2023-05-14T00:30:42.532Z,3.80
2023-05-14T00:31:42.622Z,3.90
2023-05-14T00:32:42.623Z,4.00
2023-05-14T00:33:42.509Z,4.20
2023-05-14T00:34:42.642Z,4.20
2023-05-14T00:35:42.493Z,4.00
2023-05-14T00:37:03.553Z,3.80
2023-05-14T00:37:42.430Z,3.90
2023-05-14T00:38:42.524Z,4.20
2023-05-14T00:39:42.409Z,3.70
2023-05-14T00:40:42.544Z,3.90
2023-05-14T00:41:42.395Z,4.10
2023-05-14T00:42:44.596Z,4.00
2023-05-14T00:43:42.354Z,4.10
2023-05-14T00:44:42.519Z,4.00
2023-05-14T00:45:42.320Z,3.90
2023-05-14T00:46:42.430Z,3.50
2023-05-14T00:47:42.378Z,4.20
2023-05-14T00:48:42.394Z,3.80
2023-05-14T00:49:42.276Z,4.00
2023-05-14T00:50:42.416Z,4.90
2023-05-14T00:51:42.235Z,4.00
2023-05-14T00:52:44.448Z,4.10
2023-05-14T00:53:42.245Z,3.80
2023-05-14T00:54:42.387Z,3.90
2023-05-14T00:55:42.201Z,3.80
2023-05-14T00:56:42.234Z,3.90
2023-05-14T00:57:42.182Z,3.90
2023-05-14T00:58:42.247Z,3.80
2023-05-14T00:59:42.173Z,4.00
2023-05-14T01:00:42.340Z,3.80
2023-05-14T01:01:42.133Z,4.00
2023-05-14T01:02:42.281Z,3.80
2023-05-14T01:03:42.130Z,3.40
2023-05-14T01:04:42.257Z,3.50
2023-05-14T01:05:42.096Z,3.90
2023-05-14T01:06:42.096Z,3.90
2023-05-14T01:07:42.051Z,4.00
2023-05-14T01:08:42.136Z,3.60
2023-05-14T01:09:41.991Z,4.00
2023-05-14T01:11:03.117Z,3.70
2023-05-14T01:11:41.963Z,3.60
2023-05-14T01:12:42.115Z,3.70
2023-05-14T01:13:41.953Z,3.40
2023-05-14T01:14:42.041Z,4.00
2023-05-14T01:15:41.956Z,3.60
2023-05-14T01:16:42.076Z,3.80
2023-05-14T01:17:41.954Z,3.80
2023-05-14T01:18:42.173Z,3.90
2023-05-14T01:19:41.885Z,3.80
2023-05-14T01:20:41.949Z,3.90
2023-05-14T01:21:41.847Z,3.60
2023-05-14T01:22:43.095Z,3.70
2023-05-14T01:23:41.851Z,3.80
2023-05-14T01:24:41.925Z,4.00
2023-05-14T01:25:41.774Z,3.70
2023-05-14T01:26:42.882Z,4.00
2023-05-14T01:27:41.777Z,3.80
2023-05-14T01:28:41.940Z,3.80
2023-05-14T01:29:41.749Z,4.20
2023-05-14T01:30:41.814Z,4.20
2023-05-14T01:31:41.732Z,3.80
2023-05-14T01:32:41.858Z,3.80
2023-05-14T01:33:41.674Z,4.10
2023-05-14T01:34:41.744Z,3.90
2023-05-14T01:35:41.672Z,4.00
2023-05-14T01:36:41.721Z,3.90
2023-05-14T01:37:41.650Z,4.00
2023-05-14T01:38:41.751Z,4.10
2023-05-14T01:39:41.608Z,3.70
2023-05-14T01:40:42.776Z,4.20
2023-05-14T01:41:41.566Z,4.30
2023-05-14T01:42:41.696Z,4.10
2023-05-14T01:43:41.532Z,4.20
2023-05-14T01:44:41.648Z,4.30
2023-05-14T01:45:41.566Z,4.20
2023-05-14T01:46:41.717Z,3.80
2023-05-14T01:47:41.517Z,3.70
2023-05-14T01:48:41.659Z,4.00
2023-05-14T01:49:41.470Z,4.30
2023-05-14T01:51:02.657Z,4.40
2023-05-14T01:51:41.434Z,4.00
2023-05-14T01:52:41.560Z,3.90
2023-05-14T01:53:41.425Z,4.10
2023-05-14T01:54:41.521Z,4.60
2023-05-14T01:55:41.363Z,3.90
2023-05-14T01:56:41.469Z,4.00
2023-05-14T01:57:41.384Z,4.20
2023-05-14T01:58:41.448Z,4.20
2023-05-14T01:59:41.306Z,4.10
2023-05-14T02:00:41.350Z,4.00
2023-05-14T02:01:41.387Z,4.20
2023-05-14T02:02:41.396Z,4.60
2023-05-14T02:03:41.266Z,4.20
2023-05-14T02:04:41.497Z,4.30
2023-05-14T02:05:41.235Z,4.60
2023-05-14T02:06:41.335Z,4.10
2023-05-14T02:07:41.204Z,4.30
2023-05-14T02:08:41.379Z,4.20
2023-05-14T02:09:41.165Z,4.10
2023-05-14T02:10:41.256Z,4.20
2023-05-14T02:11:41.140Z,4.30
2023-05-14T02:12:41.244Z,4.50
2023-05-14T02:13:41.110Z,4.20
2023-05-14T02:14:41.215Z,4.00
2023-05-14T02:15:41.141Z,4.20
2023-05-14T02:16:41.184Z,4.00
2023-05-14T02:17:41.099Z,4.00
2023-05-14T02:18:41.177Z,4.50
2023-05-14T02:19:41.035Z,4.40
2023-05-14T02:20:41.053Z,4.40
2023-05-14T02:21:41.031Z,4.20
2023-05-14T02:22:41.124Z,3.90
2023-05-14T02:23:42.191Z,3.90
2023-05-14T02:24:41.000Z,3.90
2023-05-14T02:25:40.951Z,4.20
2023-05-14T02:26:40.997Z,4.30
2023-05-14T02:27:40.929Z,4.20
2023-05-14T02:28:40.979Z,3.90
2023-05-14T02:29:40.902Z,4.20
2023-05-14T02:30:40.919Z,4.30
2023-05-14T02:31:40.959Z,4.20
2023-05-14T02:32:42.081Z,3.90
2023-05-14T02:33:40.911Z,4.10
2023-05-14T02:34:41.021Z,4.40
2023-05-14T02:35:40.820Z,3.90
2023-05-14T02:36:40.859Z,4.10
2023-05-14T02:37:40.790Z,4.20
2023-05-14T02:38:40.880Z,4.40
2023-05-14T02:39:40.767Z,4.10
2023-05-14T02:40:40.854Z,4.30
2023-05-14T02:41:40.734Z,4.60
2023-05-14T02:42:40.804Z,4.60
2023-05-14T02:43:40.703Z,4.40
2023-05-14T02:44:40.720Z,4.20
2023-05-14T02:45:40.682Z,4.20
2023-05-14T02:46:40.866Z,4.30
2023-05-14T02:47:40.726Z,4.10
2023-05-14T02:48:41.711Z,4.20
2023-05-14T02:49:40.616Z,4.50
2023-05-14T02:50:40.718Z,4.10
2023-05-14T02:51:40.601Z,4.30
2023-05-14T02:52:40.702Z,4.20
2023-05-14T02:53:40.576Z,4.30
2023-05-14T02:54:40.681Z,4.30
2023-05-14T02:55:40.546Z,4.60
2023-05-14T02:56:40.625Z,4.10
2023-05-14T02:57:40.513Z,4.20
2023-05-14T02:58:40.604Z,4.00
2023-05-14T02:59:40.499Z,4.10
2023-05-14T03:00:40.621Z,4.00
2023-05-14T03:01:40.458Z,4.20
2023-05-14T03:02:40.740Z,3.90
2023-05-14T03:03:40.430Z,3.80
2023-05-14T03:04:42.666Z,4.10
2023-05-14T03:05:40.406Z,4.30
2023-05-14T03:06:40.499Z,3.70
2023-05-14T03:07:40.374Z,3.90
2023-05-14T03:08:40.571Z,3.90
2023-05-14T03:09:40.350Z,3.60
2023-05-14T03:10:43.703Z,4.10
2023-05-14T03:11:40.335Z,3.80
2023-05-14T03:12:40.507Z,3.90
2023-05-14T03:13:40.300Z,3.80
2023-05-14T03:14:40.335Z,3.70
2023-05-14T03:15:40.272Z,4.10
2023-05-14T03:16:40.404Z,3.90
2023-05-14T03:17:40.282Z,3.80
2023-05-14T03:18:41.355Z,3.80
2023-05-14T03:19:40.211Z,3.60
2023-05-14T03:20:40.344Z,4.00
2023-05-14T03:21:40.186Z,3.80
2023-05-14T03:22:40.330Z,4.00
2023-05-14T03:23:40.159Z,3.50
2023-05-14T03:24:40.213Z,3.80
2023-05-14T03:25:40.134Z,3.90
2023-05-14T03:26:40.274Z,3.50
2023-05-14T03:27:40.117Z,3.90
2023-05-14T03:28:40.242Z,3.80
2023-05-14T03:29:40.073Z,3.70
2023-05-14T03:30:40.242Z,3.60
2023-05-14T03:31:40.052Z,3.50
2023-05-14T03:32:40.280Z,3.60
2023-05-14T03:33:40.033Z,3.70
2023-05-14T03:34:40.146Z,3.60
2023-05-14T03:35:40.006Z,3.90
2023-05-14T03:36:40.132Z,3.70
2023-05-14T03:37:39.982Z,3.70
2023-05-14T03:38:41.089Z,3.70
2023-05-14T03:39:39.967Z,3.50
2023-05-14T03:40:40.155Z,4.00
2023-05-14T03:41:39.929Z,3.50
2023-05-14T03:42:40.038Z,3.60
2023-05-14T03:43:39.896Z,3.60
2023-05-14T03:44:42.076Z,3.60
2023-05-14T03:45:39.887Z,3.60
2023-05-14T03:46:39.963Z,3.50
2023-05-14T03:47:39.916Z,3.70
2023-05-14T03:48:39.969Z,3.80
2023-05-14T03:49:39.817Z,3.60
2023-05-14T03:50:41.003Z,3.70
2023-05-14T03:51:39.793Z,3.40
2023-05-14T03:52:39.856Z,3.20
2023-05-14T03:53:39.771Z,3.40
2023-05-14T03:54:39.857Z,3.60
2023-05-14T03:55:39.740Z,3.40
2023-05-14T03:56:40.804Z,3.30
2023-05-14T03:57:39.706Z,3.50
2023-05-14T03:58:41.425Z,3.20
2023-05-14T03:59:39.685Z,3.30
2023-05-14T04:00:39.752Z,3.50
2023-05-14T04:01:39.653Z,3.50
2023-05-14T04:02:39.900Z,3.40
2023-05-14T04:03:39.797Z,3.50
2023-05-14T04:04:42.955Z,3.30
2023-05-14T04:05:39.616Z,3.40
2023-05-14T04:06:39.768Z,3.60
2023-05-14T04:07:39.569Z,3.70
2023-05-14T04:08:39.701Z,3.90
2023-05-14T04:09:39.614Z,3.60
2023-05-14T04:10:39.684Z,3.70
2023-05-14T04:11:39.528Z,3.40
2023-05-14T04:12:41.658Z,3.50
2023-05-14T04:13:39.500Z,3.60
2023-05-14T04:14:39.600Z,3.70
2023-05-14T04:15:39.516Z,3.60
2023-05-14T04:16:39.769Z,3.40
2023-05-14T04:17:39.452Z,3.60
2023-05-14T04:18:39.565Z,3.40
2023-05-14T04:19:39.414Z,3.70
2023-05-14T04:20:39.483Z,3.40
2023-05-14T04:21:39.404Z,3.40
2023-05-14T04:22:39.447Z,3.60
2023-05-14T04:23:39.373Z,3.70
2023-05-14T04:24:39.413Z,3.50
2023-05-14T04:25:39.346Z,3.60
2023-05-14T04:26:39.426Z,3.50
2023-05-14T04:27:39.314Z,3.60
2023-05-14T04:28:39.400Z,3.70
2023-05-14T04:29:39.270Z,3.50
2023-05-14T04:30:39.350Z,3.90
2023-05-14T04:31:39.292Z,3.60
2023-05-14T04:32:39.362Z,3.90
2023-05-14T04:33:39.222Z,3.50
2023-05-14T04:34:39.325Z,3.60
2023-05-14T04:35:39.209Z,3.60
2023-05-14T04:36:39.296Z,3.60
2023-05-14T04:37:39.178Z,3.80
2023-05-14T04:38:39.198Z,4.00
2023-05-14T04:39:39.139Z,3.80
2023-05-14T04:40:39.178Z,3.80
2023-05-14T04:41:39.132Z,4.00
2023-05-14T04:42:39.116Z,4.10
2023-05-14T04:43:39.102Z,3.70
2023-05-14T04:44:39.154Z,4.10
2023-05-14T04:45:39.090Z,4.00
2023-05-14T04:46:39.237Z,3.70
2023-05-14T04:47:39.112Z,3.90
2023-05-14T04:48:39.067Z,3.70
2023-05-14T04:49:39.043Z,4.00
2023-05-14T04:50:39.080Z,4.30
2023-05-14T04:51:38.996Z,3.70
2023-05-14T04:52:39.087Z,4.30
2023-05-14T04:53:38.950Z,3.60
2023-05-14T04:54:39.014Z,4.00
2023-05-14T04:55:38.915Z,3.90
2023-05-14T04:56:39.025Z,4.10
2023-05-14T04:57:38.912Z,4.60
2023-05-14T04:58:38.990Z,4.10
2023-05-14T04:59:38.868Z,4.20
2023-05-14T05:00:38.952Z,4.30
2023-05-14T05:01:38.902Z,4.20
2023-05-14T05:02:38.881Z,3.80
2023-05-14T05:03:38.854Z,4.30
2023-05-14T05:04:38.932Z,4.10
2023-05-14T05:05:38.801Z,4.30
2023-05-14T05:06:38.896Z,4.20
2023-05-14T05:07:38.766Z,3.90
2023-05-14T05:08:38.825Z,3.90
2023-05-14T05:09:38.755Z,3.80
2023-05-14T05:10:38.789Z,3.80
2023-05-14T05:11:38.716Z,4.00
2023-05-14T05:12:38.740Z,4.30
2023-05-14T05:13:38.692Z,3.90
2023-05-14T05:14:38.748Z,3.90
2023-05-14T05:15:38.702Z,4.00
2023-05-14T05:16:38.733Z,4.10
2023-05-14T05:17:38.664Z,3.90
2023-05-14T05:18:38.752Z,4.30
2023-05-14T05:19:43.763Z,3.70
2023-05-14T05:20:39.596Z,3.60
2023-05-14T05:21:38.708Z,3.50
2023-05-14T05:22:38.594Z,3.70
2023-05-14T05:23:38.607Z,3.70
2023-05-14T05:24:38.590Z,3.50
2023-05-14T05:25:38.629Z,3.80
2023-05-14T05:26:38.522Z,3.70
2023-05-14T05:27:38.538Z,3.40
2023-05-14T05:28:38.513Z,3.40
2023-05-14T05:29:38.548Z,3.70
2023-05-14T05:30:38.475Z,3.60
2023-05-14T05:31:38.613Z,3.60
2023-05-14T05:32:38.438Z,3.20
2023-05-14T05:33:38.475Z,3.60
2023-05-14T05:34:38.440Z,3.60
2023-05-14T05:35:38.505Z,3.30
2023-05-14T05:36:38.373Z,3.30
2023-05-14T05:37:38.399Z,3.60
2023-05-14T05:38:38.364Z,3.80
2023-05-14T05:39:38.460Z,3.70
2023-05-14T05:40:38.366Z,3.50
2023-05-14T05:41:38.325Z,3.50
2023-05-14T05:42:38.297Z,3.80
2023-05-14T05:43:38.342Z,3.80
2023-05-14T05:44:38.288Z,3.70
2023-05-14T05:45:38.368Z,3.40
2023-05-14T05:46:38.349Z,3.30
2023-05-14T05:47:38.295Z,3.30
2023-05-14T05:48:38.214Z,3.30
2023-05-14T05:49:38.281Z,3.00
2023-05-14T05:50:38.183Z,3.20
2023-05-14T05:51:38.213Z,3.40
2023-05-14T05:52:38.175Z,3.10
2023-05-14T05:53:38.226Z,3.00
2023-05-14T05:54:38.141Z,2.90
2023-05-14T05:55:38.224Z,3.30
2023-05-14T05:56:38.113Z,3.10
2023-05-14T05:57:38.131Z,3.10
2023-05-14T05:58:38.112Z,3.10
2023-05-14T05:59:38.151Z,3.30
2023-05-14T06:00:38.051Z,3.10
2023-05-14T06:01:38.101Z,3.00
2023-05-14T06:02:38.223Z,2.90
2023-05-14T06:03:38.146Z,3.40
2023-05-14T06:04:38.035Z,3.20
2023-05-14T06:05:38.231Z,2.80
2023-05-14T06:06:38.007Z,3.10
2023-05-14T06:07:38.026Z,3.10
2023-05-14T06:08:37.951Z,3.10
2023-05-14T06:09:38.036Z,3.40
2023-05-14T06:10:37.942Z,3.00
2023-05-14T06:11:37.950Z,2.90
2023-05-14T06:12:37.901Z,3.20
2023-05-14T06:13:37.953Z,3.00
2023-05-14T06:14:37.871Z,3.20
2023-05-14T06:15:37.977Z,2.90
2023-05-14T06:16:37.919Z,3.10
2023-05-14T06:17:40.038Z,2.70
2023-05-14T06:18:37.944Z,2.90
2023-05-14T06:19:37.890Z,2.90
2023-05-14T06:20:37.803Z,3.20
2023-05-14T06:21:37.800Z,3.00
2023-05-14T06:22:37.778Z,2.90
2023-05-14T06:23:37.818Z,2.80
2023-05-14T06:24:37.736Z,3.10
2023-05-14T06:25:37.831Z,2.80
2023-05-14T06:26:37.709Z,2.60
2023-05-14T06:27:37.743Z,2.70
2023-05-14T06:28:37.731Z,2.90
2023-05-14T06:29:37.756Z,2.80
2023-05-14T06:30:37.697Z,2.90
2023-05-14T06:31:37.759Z,2.80
2023-05-14T06:32:37.659Z,3.00
2023-05-14T06:33:37.686Z,2.60
2023-05-14T06:34:37.626Z,2.60
2023-05-14T06:35:37.697Z,2.70
2023-05-14T06:36:37.569Z,2.60
2023-05-14T06:37:37.614Z,2.80
2023-05-14T06:38:37.552Z,2.50
2023-05-14T06:39:37.622Z,2.60
2023-05-14T06:40:37.889Z,2.60
2023-05-14T06:41:37.534Z,3.00
2023-05-14T06:42:37.494Z,2.40
2023-05-14T06:43:37.545Z,3.00
2023-05-14T06:44:37.465Z,2.40
2023-05-14T06:45:37.569Z,2.80
2023-05-14T06:46:37.459Z,2.70
2023-05-14T06:47:39.606Z,2.60
2023-05-14T06:48:37.448Z,2.80
2023-05-14T06:49:37.507Z,2.60
2023-05-14T06:50:37.386Z,2.50
2023-05-14T06:51:37.416Z,2.70
2023-05-14T06:52:37.384Z,2.80
2023-05-14T06:53:37.436Z,2.60
2023-05-14T06:54:37.332Z,2.60
2023-05-14T06:55:37.323Z,2.80
2023-05-14T06:56:37.343Z,2.70
2023-05-14T06:57:39.855Z,2.70
2023-05-14T06:58:37.300Z,2.50
2023-05-14T06:59:37.467Z,2.50
2023-05-14T07:00:37.261Z,2.60
2023-05-14T07:01:37.343Z,2.50
2023-05-14T07:02:37.253Z,2.50
2023-05-14T07:03:37.294Z,2.50
2023-05-14T07:04:37.264Z,2.40
2023-05-14T07:05:37.302Z,2.50
2023-05-14T07:06:37.177Z,2.70
2023-05-14T07:07:37.214Z,2.80
2023-05-14T07:08:37.153Z,2.70
2023-05-14T07:09:37.249Z,2.70
2023-05-14T07:10:37.138Z,2.70
2023-05-14T07:11:37.138Z,2.50
2023-05-14T07:12:37.103Z,2.50
2023-05-14T07:13:37.169Z,2.70
2023-05-14T07:14:37.066Z,2.60
2023-05-14T07:15:37.078Z,2.70
2023-05-14T07:16:37.129Z,2.70
2023-05-14T07:17:37.110Z,2.80
2023-05-14T07:18:37.101Z,2.80
2023-05-14T07:19:37.100Z,3.10
2023-05-14T07:20:36.986Z,2.60
2023-05-14T07:21:37.009Z,2.80
2023-05-14T07:22:36.994Z,3.00
2023-05-14T07:23:37.018Z,2.60
2023-05-14T07:24:36.931Z,2.70
2023-05-14T07:25:36.937Z,2.90
2023-05-14T07:26:36.935Z,2.80
2023-05-14T07:27:36.960Z,2.60
2023-05-14T07:28:36.937Z,2.90
2023-05-14T07:29:36.964Z,3.00
2023-05-14T07:30:36.856Z,2.80
2023-05-14T07:31:36.923Z,2.70
2023-05-14T07:32:36.836Z,3.20
2023-05-14T07:33:36.945Z,2.80
2023-05-14T07:34:36.814Z,3.40
2023-05-14T07:35:36.808Z,3.00
2023-05-14T07:36:36.791Z,3.50
2023-05-14T07:37:36.823Z,3.30
2023-05-14T07:38:36.785Z,3.10
2023-05-14T07:39:36.840Z,3.30
2023-05-14T07:40:36.742Z,2.90
2023-05-14T07:41:36.750Z,2.80
2023-05-14T07:42:37.452Z,2.80
2023-05-14T07:43:36.755Z,2.60
2023-05-14T07:44:36.682Z,2.60
2023-05-14T07:45:36.677Z,3.10
2023-05-14T07:46:36.665Z,3.00
2023-05-14T07:47:36.816Z,3.10
2023-05-14T07:48:36.694Z,3.10
2023-05-14T07:49:36.692Z,2.90
2023-05-14T07:50:36.582Z,2.80
2023-05-14T07:51:36.617Z,2.70
2023-05-14T07:52:36.586Z,2.70
2023-05-14T07:53:36.547Z,2.80
2023-05-14T07:54:36.532Z,2.80
2023-05-14T07:55:36.549Z,2.60
2023-05-14T07:56:36.510Z,2.50
2023-05-14T07:57:36.553Z,2.70
2023-05-14T07:58:36.500Z,2.50
2023-05-14T07:59:36.575Z,2.50
2023-05-14T08:00:36.455Z,3.10
2023-05-14T08:01:38.595Z,2.60
2023-05-14T08:02:36.499Z,2.90
2023-05-14T08:03:37.592Z,2.90
2023-05-14T08:04:36.640Z,2.80
2023-05-14T08:05:36.420Z,2.80
2023-05-14T08:06:36.370Z,2.50
2023-05-14T08:07:37.444Z,2.90
2023-05-14T08:08:36.331Z,2.80
2023-05-14T08:09:36.434Z,2.80
2023-05-14T08:10:36.457Z,2.70
2023-05-14T08:11:36.373Z,2.80
2023-05-14T08:12:36.312Z,3.00
2023-05-14T08:13:36.395Z,2.80
2023-05-14T08:14:36.343Z,2.60
2023-05-14T08:15:36.274Z,2.70
2023-05-14T08:16:36.308Z,3.00
2023-05-14T08:17:36.312Z,2.50
2023-05-14T08:18:36.249Z,2.90
2023-05-14T08:19:36.317Z,2.70
2023-05-14T08:20:36.183Z,2.80
2023-05-14T08:21:36.218Z,2.60
2023-05-14T08:22:36.170Z,3.00
2023-05-14T08:23:36.232Z,3.00
2023-05-14T08:24:36.182Z,2.90
2023-05-14T08:25:36.208Z,2.80
2023-05-14T08:26:36.095Z,2.80
2023-05-14T08:27:36.218Z,2.80
2023-05-14T08:28:36.101Z,2.90
2023-05-14T08:29:36.075Z,3.10
2023-05-14T08:30:36.079Z,2.60
2023-05-14T08:31:36.094Z,2.70
2023-05-14T08:32:36.060Z,2.70
2023-05-14T08:33:36.118Z,2.60
2023-05-14T08:34:36.008Z,2.50
2023-05-14T08:35:36.083Z,2.80
2023-05-14T08:36:35.961Z,2.90
2023-05-14T08:37:57.174Z,3.00
2023-05-14T08:38:35.931Z,3.10
2023-05-14T08:39:36.034Z,2.80
2023-05-14T08:40:35.953Z,3.40
2023-05-14T08:41:35.961Z,3.60
2023-05-14T08:42:35.887Z,3.40
2023-05-14T08:43:36.010Z,3.40
2023-05-14T08:44:35.971Z,4.40
2023-05-14T08:45:35.921Z,5.30
2023-05-14T08:46:35.876Z,4.90
2023-05-14T08:47:35.951Z,4.00
2023-05-14T08:48:35.823Z,3.50
2023-05-14T08:49:35.819Z,3.30
2023-05-14T08:50:35.776Z,3.00
2023-05-14T08:51:37.041Z,3.10
2023-05-14T08:52:35.758Z,2.90
2023-05-14T08:53:35.853Z,3.10
2023-05-14T08:54:35.737Z,2.90
2023-05-14T08:55:35.757Z,3.20
2023-05-14T08:56:35.693Z,3.70
2023-05-14T08:57:35.777Z,3.60
2023-05-14T08:58:35.698Z,3.20
2023-05-14T08:59:35.694Z,3.20
2023-05-14T09:00:35.639Z,3.20
2023-05-14T09:01:35.714Z,2.90
2023-05-14T09:02:35.648Z,3.20
2023-05-14T09:03:35.749Z,3.10
2023-05-14T09:04:35.653Z,3.00
2023-05-14T09:05:35.619Z,3.00
2023-05-14T09:06:35.606Z,3.10
2023-05-14T09:07:35.707Z,3.20
2023-05-14T09:08:35.546Z,3.20
2023-05-14T09:09:35.544Z,3.20
2023-05-14T09:10:35.532Z,3.10
2023-05-14T09:11:35.567Z,3.10
2023-05-14T09:12:35.480Z,3.10
2023-05-14T09:13:35.573Z,3.00
2023-05-14T09:14:35.454Z,3.00
2023-05-14T09:15:35.487Z,3.40
2023-05-14T09:16:35.475Z,3.10
2023-05-14T09:17:35.549Z,3.30
2023-05-14T09:18:35.467Z,3.20
2023-05-14T09:19:35.427Z,3.10
2023-05-14T09:20:35.493Z,3.30
2023-05-14T09:21:35.426Z,2.80
2023-05-14T09:22:35.370Z,3.00
2023-05-14T09:23:35.441Z,2.90
2023-05-14T09:24:35.319Z,3.30
2023-05-14T09:25:35.347Z,3.10
2023-05-14T09:26:35.302Z,3.40
2023-05-14T09:27:35.369Z,3.40
2023-05-14T09:28:35.285Z,3.30
2023-05-14T09:29:35.287Z,3.40
2023-05-14T09:30:35.232Z,3.40
2023-05-14T09:31:35.309Z,3.40
2023-05-14T09:32:35.237Z,3.60
2023-05-14T09:33:35.320Z,3.60
2023-05-14T09:34:35.244Z,3.70
2023-05-14T09:35:35.439Z,3.70
2023-05-14T09:36:35.261Z,3.70
2023-05-14T09:37:35.257Z,3.20
2023-05-14T09:38:35.245Z,3.20
2023-05-14T09:39:35.148Z,3.10
2023-05-14T09:40:35.179Z,3.20
2023-05-14T09:41:35.159Z,3.20
2023-05-14T09:42:35.068Z,2.80
2023-05-14T09:43:35.181Z,3.20
2023-05-14T09:44:35.049Z,3.30
2023-05-14T09:45:35.120Z,3.40
2023-05-14T09:46:35.160Z,3.50
2023-05-14T09:47:35.198Z,3.30
2023-05-14T09:48:35.010Z,3.00
2023-05-14T09:49:35.031Z,3.30
2023-05-14T09:50:34.965Z,3.30
2023-05-14T09:51:35.053Z,3.00
2023-05-14T09:52:34.955Z,3.10
2023-05-14T09:53:35.051Z,3.50
2023-05-14T09:54:34.916Z,3.30
2023-05-14T09:55:34.960Z,3.60
2023-05-14T09:56:34.878Z,5.00
2023-05-14T09:57:34.978Z,4.50
2023-05-14T09:58:34.954Z,4.60
2023-05-14T09:59:34.884Z,5.00
2023-05-14T10:00:34.825Z,4.60
2023-05-14T10:01:35.027Z,4.70
2023-05-14T10:02:34.822Z,4.30
2023-05-14T10:03:34.825Z,4.20
2023-05-14T10:04:34.867Z,3.70
2023-05-14T10:05:34.962Z,3.60
2023-05-14T10:06:34.750Z,3.50
2023-05-14T10:07:34.838Z,3.40
2023-05-14T10:08:34.718Z,3.10
2023-05-14T10:09:34.748Z,3.50
2023-05-14T10:10:34.716Z,3.50
2023-05-14T10:11:34.770Z,3.40
2023-05-14T10:12:34.670Z,3.70
2023-05-14T10:13:34.685Z,3.40
2023-05-14T10:14:34.647Z,3.40
2023-05-14T10:15:34.698Z,3.30
2023-05-14T10:16:34.781Z,3.30
2023-05-14T10:17:34.754Z,3.20
2023-05-14T10:18:34.633Z,3.10
2023-05-14T10:19:34.615Z,2.80
2023-05-14T10:20:34.560Z,3.90
2023-05-14T10:21:34.649Z,3.30
2023-05-14T10:22:34.548Z,3.40
2023-05-14T10:23:34.553Z,3.60
2023-05-14T10:24:34.537Z,3.50
2023-05-14T10:25:34.558Z,3.90
2023-05-14T10:26:34.486Z,3.40
2023-05-14T10:27:34.586Z,3.40
2023-05-14T10:28:34.485Z,3.50
2023-05-14T10:29:34.516Z,4.90
2023-05-14T10:30:34.432Z,6.40
2023-05-14T10:31:36.530Z,6.20
2023-05-14T10:32:34.501Z,4.60
2023-05-14T10:33:35.439Z,6.20
2023-05-14T10:34:34.411Z,12.70
2023-05-14T10:35:34.441Z,5.10
2023-05-14T10:36:34.398Z,6.10
2023-05-14T10:37:34.447Z,4.90
2023-05-14T10:38:34.329Z,4.10
2023-05-14T10:39:34.368Z,4.10
2023-05-14T10:40:34.360Z,3.70
2023-05-14T10:41:34.366Z,6.40
2023-05-14T10:42:34.278Z,4.30
2023-05-14T10:43:34.290Z,7.90
2023-05-14T10:44:34.394Z,7.60
2023-05-14T10:45:34.307Z,4.70
2023-05-14T10:46:34.281Z,4.10
2023-05-14T10:47:34.441Z,4.80
2023-05-14T10:48:34.220Z,4.50
2023-05-14T10:49:42.761Z,3.70
2023-05-14T10:50:35.161Z,6.90
2023-05-14T10:51:34.315Z,7.60
2023-05-14T10:52:34.150Z,6.10
2023-05-14T10:53:34.155Z,6.00
2023-05-14T10:54:34.097Z,4.20
2023-05-14T10:55:34.190Z,6.20
2023-05-14T10:56:34.078Z,5.50
2023-05-14T10:57:34.075Z,4.10
2023-05-14T10:58:34.075Z,3.60
2023-05-14T10:59:34.094Z,4.30
2023-05-14T11:00:34.013Z,4.70
2023-05-14T11:01:34.169Z,4.10
2023-05-14T11:02:34.162Z,4.40
2023-05-14T11:03:34.082Z,4.90
2023-05-14T11:04:33.989Z,3.70
2023-05-14T11:05:34.048Z,4.30
2023-05-14T11:06:33.944Z,4.80
2023-05-14T11:07:34.074Z,6.80
2023-05-14T11:08:33.918Z,4.30
2023-05-14T11:09:33.978Z,3.70
2023-05-14T11:10:33.910Z,4.20
2023-05-14T11:11:33.977Z,4.40
2023-05-14T11:12:33.860Z,5.40
2023-05-14T11:13:33.893Z,4.20
2023-05-14T11:14:33.841Z,3.50
2023-05-14T11:15:33.932Z,4.00
2023-05-14T11:16:33.875Z,3.80
2023-05-14T11:17:33.847Z,4.50
2023-05-14T11:18:33.886Z,4.80
2023-05-14T11:19:33.832Z,3.60
2023-05-14T11:20:33.753Z,4.00
2023-05-14T11:21:33.863Z,4.30
2023-05-14T11:22:33.744Z,4.50
2023-05-14T11:23:33.761Z,4.60
2023-05-14T11:24:33.707Z,4.40
2023-05-14T11:25:33.779Z,4.90
2023-05-14T11:26:33.733Z,4.40
2023-05-14T11:27:33.694Z,4.90
2023-05-14T11:28:33.684Z,4.00
2023-05-14T11:29:33.700Z,4.00
2023-05-14T11:30:33.623Z,4.10
2023-05-14T11:31:33.798Z,3.90
2023-05-14T11:32:33.783Z,4.00
2023-05-14T11:33:33.651Z,3.90
2023-05-14T11:34:33.579Z,4.00
2023-05-14T11:35:33.641Z,3.50
2023-05-14T11:36:33.546Z,3.50
2023-05-14T11:37:33.528Z,3.20
2023-05-14T11:38:33.526Z,3.30
2023-05-14T11:39:33.572Z,3.10
2023-05-14T11:40:33.544Z,3.20
2023-05-14T11:41:33.588Z,3.30
2023-05-14T11:42:33.462Z,3.70
2023-05-14T11:43:33.492Z,3.50
2023-05-14T11:44:33.442Z,3.40
2023-05-14T11:45:33.514Z,3.50
2023-05-14T11:46:33.476Z,3.80
2023-05-14T11:47:33.540Z,3.60
2023-05-14T11:48:33.388Z,3.50
2023-05-14T11:49:33.442Z,3.10
2023-05-14T11:50:33.345Z,3.40
2023-05-14T11:51:33.354Z,3.50
2023-05-14T11:52:33.343Z,3.60
2023-05-14T11:53:33.387Z,4.10
2023-05-14T11:54:33.301Z,4.20
2023-05-14T11:55:33.375Z,4.40
2023-05-14T11:56:33.265Z,4.60
2023-05-14T11:57:33.280Z,13.00
2023-05-14T11:58:33.259Z,7.80
2023-05-14T11:59:33.313Z,15.70
2023-05-14T12:00:33.220Z,8.10
2023-05-14T12:01:33.216Z,5.80
2023-05-14T12:02:33.235Z,4.30
2023-05-14T12:03:33.402Z,3.60
2023-05-14T12:04:33.210Z,3.50
2023-05-14T12:05:33.242Z,3.80
2023-05-14T12:06:33.135Z,4.10
2023-05-14T12:07:33.155Z,4.00
2023-05-14T12:08:33.104Z,3.90
2023-05-14T12:09:33.171Z,3.70
2023-05-14T12:10:33.087Z,3.60
2023-05-14T12:11:33.089Z,3.50
2023-05-14T12:12:33.050Z,3.40
2023-05-14T12:13:33.122Z,3.30
2023-05-14T12:14:33.012Z,3.40
2023-05-14T12:15:33.111Z,3.80
2023-05-14T12:16:33.977Z,3.30
2023-05-14T12:17:33.056Z,3.30
2023-05-14T12:18:33.183Z,3.50
2023-05-14T12:19:33.047Z,3.20
2023-05-14T12:20:32.950Z,3.60
2023-05-14T12:21:33.020Z,3.50
2023-05-14T12:22:33.883Z,3.50
2023-05-14T12:23:32.997Z,3.50
2023-05-14T12:24:32.896Z,4.00
2023-05-14T12:25:32.986Z,5.80
2023-05-14T12:26:32.852Z,4.00
2023-05-14T12:27:32.900Z,3.50
2023-05-14T12:28:34.255Z,5.70
2023-05-14T12:29:32.935Z,4.10
2023-05-14T12:30:32.810Z,5.20
2023-05-14T12:31:32.908Z,4.30
2023-05-14T12:32:32.859Z,4.40
2023-05-14T12:33:32.854Z,4.00
2023-05-14T12:34:33.334Z,4.10
2023-05-14T12:35:32.842Z,4.30
2023-05-14T12:36:32.719Z,4.50
2023-05-14T12:37:32.768Z,4.60
2023-05-14T12:38:32.705Z,4.10
2023-05-14T12:39:32.778Z,3.60
2023-05-14T12:40:32.706Z,3.40
2023-05-14T12:41:53.675Z,3.10
2023-05-14T12:42:32.632Z,2.90
2023-05-14T12:43:32.693Z,3.00
2023-05-14T12:44:32.611Z,3.40
2023-05-14T12:45:32.617Z,3.20
2023-05-14T12:46:32.685Z,3.50
2023-05-14T12:47:32.682Z,3.80
2023-05-14T12:48:32.552Z,3.60
2023-05-14T12:49:32.637Z,3.30
2023-05-14T12:50:32.529Z,2.90
2023-05-14T12:51:32.554Z,2.90
2023-05-14T12:52:38.301Z,2.90
2023-05-14T12:53:33.560Z,3.30
2023-05-14T12:54:32.575Z,3.10
2023-05-14T12:55:32.463Z,3.10
2023-05-14T12:56:32.497Z,2.80
2023-05-14T12:57:32.441Z,3.10
2023-05-14T12:58:32.572Z,3.20
2023-05-14T12:59:32.439Z,3.00
2023-05-14T13:00:32.508Z,3.30
2023-05-14T13:01:32.473Z,3.70
2023-05-14T13:02:32.440Z,4.50
2023-05-14T13:03:32.360Z,3.50
2023-05-14T13:04:32.424Z,4.30
2023-05-14T13:05:32.386Z,4.70
2023-05-14T13:06:32.364Z,4.60
2023-05-14T13:07:32.310Z,3.70
2023-05-14T13:08:32.371Z,4.00
2023-05-14T13:09:32.283Z,3.80
2023-05-14T13:10:32.350Z,3.90
2023-05-14T13:11:32.250Z,3.30
2023-05-14T13:12:32.406Z,3.60
2023-05-14T13:13:32.232Z,3.40
2023-05-14T13:14:32.357Z,3.50
2023-05-14T13:15:32.183Z,3.40
2023-05-14T13:16:33.353Z,3.20
2023-05-14T13:17:32.277Z,2.80
2023-05-14T13:18:32.303Z,3.10